createdAt,value
2019-01-17T00:03:38.658Z,1011.9
2019-01-17T00:08:38.859Z,1012
2019-01-17T00:13:38.915Z,1011.8
2019-01-17T00:18:38.692Z,1011.8
2019-01-17T00:23:38.819Z,1011.9
2019-01-17T00:28:38.877Z,1011.9
2019-01-17T00:33:38.843Z,1011.8
2019-01-17T00:38:38.827Z,1011.8
2019-01-17T00:43:38.854Z,1011.8
2019-01-17T00:48:38.660Z,1011.7
2019-01-17T00:53:38.838Z,1011.8
2019-01-17T00:58:38.681Z,1011.8
2019-01-17T01:03:38.907Z,1011.9
2019-01-17T01:08:38.660Z,1011.9
2019-01-17T01:13:38.720Z,1012
2019-01-17T01:18:38.711Z,1011.9
2019-01-17T01:23:38.650Z,1011.9
2019-01-17T01:28:38.701Z,1011.7
2019-01-17T01:33:38.692Z,1011.7
2019-01-17T01:38:38.716Z,1011.6
2019-01-17T01:43:38.853Z,1011.5
2019-01-17T01:48:38.715Z,1011.6
2019-01-17T01:53:40.206Z,1011.4
2019-01-17T01:58:38.842Z,1011.4
2019-01-17T02:03:38.903Z,1011.5
2019-01-17T02:08:38.936Z,1011.6
2019-01-17T02:13:38.725Z,1011.5
2019-01-17T02:18:38.728Z,1011.5
2019-01-17T02:23:38.930Z,1011.4
2019-01-17T02:28:38.728Z,1011.5
2019-01-17T02:33:38.861Z,1011.4
2019-01-17T02:38:38.740Z,1011.5
2019-01-17T02:43:38.746Z,1011.5
2019-01-17T02:48:38.755Z,1011.6
2019-01-17T02:53:38.763Z,1011.6
2019-01-17T02:58:38.982Z,1011.6
2019-01-17T03:03:38.892Z,1011.6
2019-01-17T03:08:38.938Z,1011.6
2019-01-17T03:13:38.975Z,1011.5
2019-01-17T03:18:38.763Z,1011.5
2019-01-17T03:23:38.774Z,1011.4
2019-01-17T03:28:38.771Z,1011.5
2019-01-17T03:33:39.003Z,1011.5
2019-01-17T03:38:38.773Z,1011.4
2019-01-17T03:43:38.764Z,1011.4
2019-01-17T03:48:38.800Z,1011.3
2019-01-17T03:53:38.945Z,1011.3
2019-01-17T03:58:38.825Z,1011.4
2019-01-17T04:03:38.997Z,1011.4
2019-01-17T04:08:38.793Z,1011.2
2019-01-17T04:13:38.841Z,1011.5
2019-01-17T04:18:39.023Z,1011.5
2019-01-17T04:23:38.955Z,1011.4
2019-01-17T04:28:39.006Z,1011.5
2019-01-17T04:33:38.812Z,1011.5
2019-01-17T04:38:38.808Z,1011.6
2019-01-17T04:43:38.815Z,1011.6
2019-01-17T04:48:38.810Z,1011.6
2019-01-17T04:53:38.819Z,1011.8
2019-01-17T04:58:38.959Z,1011.8
2019-01-17T05:03:38.849Z,1011.9
2019-01-17T05:08:38.831Z,1012
2019-01-17T05:13:38.940Z,1012.1
2019-01-17T05:18:39.028Z,1012.1
2019-01-17T05:23:38.838Z,1012.1
2019-01-17T05:28:38.840Z,1012.1
2019-01-17T05:33:38.868Z,1012.1
2019-01-17T05:38:38.854Z,1012.1
2019-01-17T05:43:38.866Z,1012.2
2019-01-17T05:48:38.898Z,1012.2
2019-01-17T05:53:38.839Z,1012.2
2019-01-17T05:58:38.858Z,1011.9
2019-01-17T06:03:38.869Z,1011.7
2019-01-17T06:08:39.047Z,1011.7
2019-01-17T06:13:38.873Z,1011.5
2019-01-17T06:18:39.092Z,1011.4
2019-01-17T06:23:39.037Z,1011.4
2019-01-17T06:28:38.885Z,1011.4
2019-01-17T06:33:38.867Z,1011.4
2019-01-17T06:38:38.867Z,1011.4
2019-01-17T06:43:39.085Z,1011.4
2019-01-17T06:48:38.888Z,1011.2
2019-01-17T06:53:38.887Z,1011.3
2019-01-17T06:58:38.892Z,1011.3
2019-01-17T07:03:38.897Z,1011.3
2019-01-17T07:08:39.026Z,1011.4
2019-01-17T07:13:39.069Z,1011.3
2019-01-17T07:18:39.115Z,1011.2
2019-01-17T07:23:38.871Z,1011.2
2019-01-17T07:28:38.872Z,1011.2
2019-01-17T07:33:39.132Z,1011.3
2019-01-17T07:38:38.909Z,1011.4
2019-01-17T07:43:38.921Z,1011.4
2019-01-17T07:48:38.938Z,1011.4
2019-01-17T07:53:39.155Z,1011.5
2019-01-17T07:58:39.082Z,1011.4
2019-01-17T08:03:38.936Z,1011.4
2019-01-17T08:08:38.952Z,1011.4
2019-01-17T08:13:38.964Z,1011.5
2019-01-17T08:18:39.100Z,1011.5
2019-01-17T08:23:39.158Z,1011.5
2019-01-17T08:28:38.912Z,1011.5
2019-01-17T08:33:39.095Z,1011.5
2019-01-17T08:38:39.154Z,1011.4
2019-01-17T08:43:38.957Z,1011.4
2019-01-17T08:48:38.924Z,1011.4
2019-01-17T08:53:39.177Z,1011.3
2019-01-17T08:58:38.949Z,1011.3
2019-01-17T09:03:38.969Z,1011.3
2019-01-17T09:08:38.943Z,1011.1
2019-01-17T09:13:38.973Z,1011.2
2019-01-17T09:18:39.012Z,1011.1
2019-01-17T09:23:38.947Z,1011
2019-01-17T09:28:38.966Z,1011
2019-01-17T09:33:38.978Z,1010.9
2019-01-17T09:38:38.991Z,1010.7
2019-01-17T09:43:39.124Z,1010.6
2019-01-17T09:48:38.965Z,1010.5
2019-01-17T09:53:39.021Z,1010.3
2019-01-17T09:58:38.979Z,1010.2
2019-01-17T10:03:39.002Z,1010.1
2019-01-17T10:08:39.006Z,1009.9
2019-01-17T10:13:38.966Z,1009.7
2019-01-17T10:18:38.993Z,1009.6
2019-01-17T10:23:38.984Z,1009.4
2019-01-17T10:28:39.161Z,1009.4
2019-01-17T10:33:39.000Z,1009.3
2019-01-17T10:38:39.010Z,1009.3
2019-01-17T10:43:39.013Z,1009.1
2019-01-17T10:48:39.105Z,1009
2019-01-17T10:53:38.963Z,1008.9
2019-01-17T10:58:38.999Z,1008.8
2019-01-17T11:03:39.016Z,1008.5
2019-01-17T11:08:39.028Z,1008.3
2019-01-17T11:13:39.035Z,1008.3
2019-01-17T11:18:39.019Z,1008.2
2019-01-17T11:23:39.008Z,1008.1
2019-01-17T11:28:39.035Z,1007.8
2019-01-17T11:33:39.055Z,1007.8
2019-01-17T11:38:39.050Z,1007.7
2019-01-17T11:43:39.023Z,1007.7
2019-01-17T11:48:39.157Z,1007.6
2019-01-17T11:53:39.041Z,1007.4
2019-01-17T11:58:39.312Z,1007.2
2019-01-17T12:03:39.057Z,1007.1
2019-01-17T12:08:39.036Z,1007.1
2019-01-17T12:13:39.067Z,1007.1
2019-01-17T12:18:39.053Z,1006.9
2019-01-17T12:23:39.050Z,1006.7
2019-01-17T12:28:39.075Z,1006.6
2019-01-17T12:33:39.069Z,1006.6
2019-01-17T12:38:39.074Z,1006.5
2019-01-17T12:43:39.102Z,1006.5
2019-01-17T12:48:39.203Z,1006.3
2019-01-17T12:53:39.258Z,1006.4
2019-01-17T12:58:39.068Z,1006.3
2019-01-17T13:03:39.092Z,1006.2
2019-01-17T13:08:39.075Z,1006.2
2019-01-17T13:13:39.104Z,1006.1
2019-01-17T13:18:40.379Z,1006
2019-01-17T13:23:39.102Z,1005.9
2019-01-17T13:28:39.190Z,1005.9
2019-01-17T13:33:39.337Z,1006
2019-01-17T13:38:39.284Z,1006
2019-01-17T13:43:39.286Z,1006
2019-01-17T13:48:39.102Z,1006.1
2019-01-17T13:53:40.146Z,1006.2
2019-01-17T13:58:39.109Z,1006.3
2019-01-17T14:03:39.341Z,1006.4
2019-01-17T14:08:39.108Z,1006.4
2019-01-17T14:13:39.062Z,1006.3
2019-01-17T14:18:39.123Z,1006.4
2019-01-17T14:23:39.373Z,1006.4
2019-01-17T14:28:39.143Z,1006.7
2019-01-17T14:33:39.152Z,1006.6
2019-01-17T14:38:39.157Z,1006.7
2019-01-17T14:43:39.121Z,1006.7
2019-01-17T14:48:39.132Z,1006.7
2019-01-17T14:53:39.139Z,1006.9
2019-01-17T14:58:39.269Z,1006.9
2019-01-17T15:03:39.157Z,1007.1
2019-01-17T15:08:39.142Z,1007.2
2019-01-17T15:13:39.156Z,1007.2
2019-01-17T15:18:39.152Z,1007.3
2019-01-17T15:23:39.136Z,1007.5
2019-01-17T15:28:39.182Z,1007.6
2019-01-17T15:33:39.167Z,1007.8
2019-01-17T15:38:39.175Z,1008
2019-01-17T15:43:39.165Z,1008
2019-01-17T15:48:39.172Z,1008.1
2019-01-17T15:53:39.188Z,1008.4
2019-01-17T15:58:39.159Z,1008.5
2019-01-17T16:03:39.325Z,1008.5
2019-01-17T16:08:39.192Z,1008.7
2019-01-17T16:13:39.176Z,1008.7
2019-01-17T16:18:39.324Z,1008.8
2019-01-17T16:23:39.205Z,1008.9
2019-01-17T16:28:39.190Z,1008.9
2019-01-17T16:33:39.211Z,1008.9
2019-01-17T16:38:39.397Z,1009
2019-01-17T16:43:39.156Z,1009.1
2019-01-17T16:48:39.206Z,1009.3
2019-01-17T16:53:39.223Z,1009.4
2019-01-17T16:58:39.228Z,1009.4
2019-01-17T17:03:42.210Z,1009.4
2019-01-17T17:08:39.188Z,1009.5
2019-01-17T17:13:39.206Z,1009.5
2019-01-17T17:18:39.184Z,1009.6
2019-01-17T17:23:39.254Z,1009.6
2019-01-17T17:28:39.215Z,1009.6
2019-01-17T17:33:39.219Z,1009.7
2019-01-17T17:38:39.235Z,1009.7
2019-01-17T17:43:39.215Z,1009.8
2019-01-17T17:48:39.203Z,1009.9
2019-01-17T17:53:42.384Z,1009.8
2019-01-17T17:58:39.250Z,1009.8
2019-01-17T18:03:39.477Z,1009.9
2019-01-17T18:08:39.281Z,1010
2019-01-17T18:13:39.247Z,1010.1
2019-01-17T18:18:39.249Z,1010.2
2019-01-17T18:23:39.237Z,1010.3
2019-01-17T18:28:40.343Z,1010.5
2019-01-17T18:33:39.271Z,1010.8
2019-01-17T18:38:39.295Z,1010.8
2019-01-17T18:43:39.303Z,1010.9
2019-01-17T18:48:39.211Z,1011
2019-01-17T18:53:39.255Z,1011.1
2019-01-17T18:58:39.336Z,1011.1
2019-01-17T19:03:39.357Z,1011.2
2019-01-17T19:08:39.315Z,1011.2
2019-01-17T19:13:39.293Z,1011.3
2019-01-17T19:18:39.313Z,1011.2
2019-01-17T19:23:39.386Z,1011.3
2019-01-17T19:28:39.358Z,1011.2
2019-01-17T19:33:39.415Z,1011.2
2019-01-17T19:38:39.353Z,1011.2
2019-01-17T19:43:39.355Z,1011.1
2019-01-17T19:48:39.390Z,1011.1
2019-01-17T19:53:39.373Z,1011.1
2019-01-17T19:58:39.395Z,1011
2019-01-17T20:03:40.619Z,1011
2019-01-17T20:08:39.346Z,1011
2019-01-17T20:13:39.363Z,1011
2019-01-17T20:18:39.396Z,1011
2019-01-17T20:23:39.361Z,1011.1
2019-01-17T20:28:39.395Z,1011.1
2019-01-17T20:33:39.510Z,1011.1
2019-01-17T20:38:39.530Z,1011.2
2019-01-17T20:43:39.491Z,1011.2
2019-01-17T20:48:39.338Z,1011.3
2019-01-17T20:53:39.490Z,1011.2
2019-01-17T20:58:43.435Z,1011.3
2019-01-17T21:03:39.447Z,1011.2
2019-01-17T21:08:42.141Z,1011.2
2019-01-17T21:13:39.362Z,1011.2
2019-01-17T21:18:39.338Z,1011.1
2019-01-17T21:23:39.337Z,1011.2
2019-01-17T21:28:39.351Z,1011.2
2019-01-17T21:33:40.730Z,1011.2
2019-01-17T21:38:39.489Z,1011.3
2019-01-17T21:43:39.523Z,1011.4
2019-01-17T21:48:42.537Z,1011.4
2019-01-17T21:53:39.631Z,1011.4
2019-01-17T21:58:40.286Z,1011.4
2019-01-17T22:03:39.397Z,1011.6
2019-01-17T22:08:39.387Z,1011.6
2019-01-17T22:13:39.393Z,1011.7
2019-01-17T22:18:39.389Z,1011.7
2019-01-17T22:23:39.425Z,1011.7
2019-01-17T22:28:39.494Z,1011.7
2019-01-17T22:33:39.481Z,1011.7
2019-01-17T22:38:39.654Z,1011.7
2019-01-17T22:43:39.621Z,1011.7
2019-01-17T22:48:39.638Z,1011.8
2019-01-17T22:53:41.174Z,1011.7
2019-01-17T22:58:41.011Z,1011.8
2019-01-17T23:03:39.631Z,1011.7
2019-01-17T23:08:39.526Z,1011.7
2019-01-17T23:13:40.046Z,1011.7
2019-01-17T23:18:39.719Z,1011.8
2019-01-17T23:23:39.499Z,1011.8
2019-01-17T23:28:39.421Z,1011.8
2019-01-17T23:33:39.496Z,1011.9
2019-01-17T23:38:39.499Z,1011.8
2019-01-17T23:43:39.497Z,1011.9
2019-01-17T23:48:39.565Z,1011.8
2019-01-17T23:53:39.719Z,1011.7
2019-01-17T23:58:39.542Z,1011.9
